Time;durP1;ratioP1;P1;durP2;ratioP2;P2;SDS_P1;SDS_P2;PMS_P1;PMS_P2;Temp;Humidity;BMP_temperature;BMP_pressure;BME280_temperature;BME280_humidity;BME280_pressure;Samples;Min_cycle;Max_cycle;Signal;HPM_P1;HPM_P2
2022/09/05 00:01:41;;;;;;;;;;;;;;;23.36;57.88;101125.56;7289652;19;153333;-62
2022/09/05 00:04:30;;;;;;;;;;;;;;;23.37;57.19;101125.25;7282864;19;152573;-63
2022/09/05 00:07:14;;;;;;;;;;;;;;;23.37;57.12;101130.06;7278257;19;153464;-63
2022/09/05 00:10:23;;;;;;;;;;;;;;;23.35;56.61;101133.19;7279842;19;152371;-62
2022/09/05 00:12:51;;;;;;;;;;;;;;;23.35;56.61;101127.53;7284216;19;153155;-62
2022/09/05 00:15:51;;;;;;;;;;;;;;;23.36;57.50;101134.84;7280912;19;155700;-62
2022/09/05 00:18:36;;;;;;;;;;;;;;;23.22;55.41;101353.16;7283232;19;152973;-63
2022/09/05 00:21:32;;;;;;;;;;;;;;;23.04;54.63;101389.66;7280563;19;155075;-63
2022/09/05 00:24:37;;;;;;;;;;;;;;;22.98;55.48;101367.53;7287860;19;152948;-63
2022/09/05 00:27:34;;;;;;;;;;;;;;;23.09;56.81;101357.69;7280804;19;156176;-63
2022/09/05 00:30:05;;;;;;;;;;;;;;;23.17;58.01;101351.31;7279925;19;153765;-63
2022/09/05 00:33:01;;;;;;;;;;;;;;;23.08;59.61;101350.38;7283260;19;152310;-63
2022/09/05 00:35:51;;;;;;;;;;;;;;;23.17;59.87;101330.75;7281310;19;154152;-62
2022/09/05 00:38:20;;;;;;;;;;;;;;;23.13;60.73;101313.63;7280348;19;154083;-62
2022/09/05 00:40:57;;;;;;;;;;;;;;;23.10;61.22;101308.63;7282055;19;152005;-63
2022/09/05 00:43:31;;;;;;;;;;;;;;;23.05;62.22;101294.66;7282805;19;154065;-63
2022/09/05 00:46:21;;;;;;;;;;;;;;;23.02;63.01;101289.66;7278453;19;153975;-63
2022/09/05 00:48:51;;;;;;;;;;;;;;;23.08;63.17;101271.47;7289615;19;152027;-63
2022/09/05 00:51:27;;;;;;;;;;;;;;;23.07;63.71;101263.34;7276502;19;155067;-63
2022/09/05 00:54:18;;;;;;;;;;;;;;;23.05;64.64;101258.84;7281624;19;153054;-63
2022/09/05 00:57:29;;;;;;;;;;;;;;;23.03;64.94;101247.03;7280136;19;156678;-63
2022/09/05 00:59:56;;;;;;;;;;;;;;;23.05;64.88;101222.22;7279960;19;153234;-63
2022/09/05 01:02:39;;;;;;;;;;;;;;;23.04;65.72;101242.25;7280340;19;151957;-63
2022/09/05 01:05:36;;;;;;;;;;;;;;;23.02;65.59;101241.75;7276526;19;153209;-63
2022/09/05 01:08:18;;;;;;;;;;;;;;;23.03;65.46;101244.22;7280902;19;153210;-63
2022/09/05 01:11:00;;;;;;;;;;;;;;;23.02;66.47;101216.38;7275274;19;153332;-64
2022/09/05 01:13:41;;;;;;;;;;;;;;;23.06;66.28;101217.41;7287819;19;153013;-64
2022/09/05 01:16:08;;;;;;;;;;;;;;;23.05;66.74;101222.22;7281595;19;152275;-63
2022/09/05 01:18:38;;;;;;;;;;;;;;;23.05;66.96;101221.38;7279609;19;154267;-63
2022/09/05 01:21:23;;;;;;;;;;;;;;;23.04;66.85;101228.16;7277415;19;153269;-63
2022/09/05 01:24:28;;;;;;;;;;;;;;;23.08;65.95;101215.09;7279855;19;152048;-63
2022/09/05 01:26:58;;;;;;;;;;;;;;;23.10;65.61;101211.97;7275841;19;152100;-63
2022/09/05 01:29:34;;;;;;;;;;;;;;;23.09;65.80;101199.00;7274739;19;153352;-63
2022/09/05 01:32:02;;;;;;;;;;;;;;;23.09;65.81;101197.03;7278498;19;152514;-63
2022/09/05 01:34:45;;;;;;;;;;;;;;;23.10;65.74;101184.59;7282322;19;153032;-62
2022/09/05 01:37:18;;;;;;;;;;;;;;;23.11;66.19;101174.16;7293141;19;154288;-63
2022/09/05 01:40:14;;;;;;;;;;;;;;;23.09;66.72;101182.94;7287651;19;152323;-64
2022/09/05 01:42:51;;;;;;;;;;;;;;;23.04;66.86;101188.69;7286608;19;152948;-64
2022/09/05 01:45:22;;;;;;;;;;;;;;;23.05;66.32;101182.75;7286170;19;152569;-64
2022/09/05 01:48:11;;;;;;;;;;;;;;;23.05;66.42;101174.28;7288803;19;153867;-64
2022/09/05 01:50:47;;;;;;;;;;;;;;;23.04;66.92;101178.25;7283186;19;153248;-66
2022/09/05 01:53:13;;;;;;;;;;;;;;;23.05;66.01;101160.19;7285085;19;151784;-62
2022/09/05 01:55:56;;;;;;;;;;;;;;;23.02;67.02;101165.66;7286605;19;152007;-62
2022/09/05 01:58:44;;;;;;;;;;;;;;;23.05;66.07;101156.53;7286345;19;154019;-62
2022/09/05 02:01:29;;;;;;;;;;;;;;;23.03;66.37;101156.06;7292525;19;152399;-62
2022/09/05 02:04:16;;;;;;;;;;;;;;;23.02;67.18;101154.38;7285426;19;153917;-62
2022/09/05 02:07:02;;;;;;;;;;;;;;;23.04;66.72;101146.41;7285276;19;151960;-62
2022/09/05 02:10:06;;;;;;;;;;;;;;;23.02;66.57;101140.28;7284652;19;155671;-62
2022/09/05 02:12:39;;;;;;;;;;;;;;;23.02;67.06;101132.66;7284098;19;153715;-62
2022/09/05 02:15:11;;;;;;;;;;;;;;;23.01;67.73;101125.38;7285747;19;152049;-62
2022/09/05 02:17:42;;;;;;;;;;;;;;;23.02;67.41;101112.09;7285751;19;153193;-62
2022/09/05 02:20:25;;;;;;;;;;;;;;;23.03;67.60;101122.22;7283349;19;152568;-63
2022/09/05 02:22:52;;;;;;;;;;;;;;;23.02;66.93;101114.94;7284934;19;152223;-63
2022/09/05 02:25:23;;;;;;;;;;;;;;;23.02;67.63;101109.28;7291774;19;153681;-63
2022/09/05 02:28:24;;;;;;;;;;;;;;;23.00;68.00;101112.41;7285753;19;152092;-62
2022/09/05 02:30:54;;;;;;;;;;;;;;;22.99;67.82;101119.19;7282649;19;153752;-62
2022/09/05 02:33:46;;;;;;;;;;;;;;;22.97;68.59;101126.31;7284555;19;156534;-62
2022/09/05 02:36:21;;;;;;;;;;;;;;;22.98;67.98;101131.66;7282958;19;152638;-62
2022/09/05 02:38:53;;;;;;;;;;;;;;;22.98;67.91;101134.47;7285036;19;153374;-63
2022/09/05 02:41:53;;;;;;;;;;;;;;;22.97;68.71;101152.53;7283406;19;157100;-62
2022/09/05 02:44:40;;;;;;;;;;;;;;;22.97;68.81;101158.16;7284689;19;152945;-62
2022/09/05 02:47:34;;;;;;;;;;;;;;;22.94;69.25;101175.69;7289747;19;154615;-63
2022/09/05 02:50:01;;;;;;;;;;;;;;;22.97;68.96;101183.53;7284232;19;152876;-62
2022/09/05 02:52:48;;;;;;;;;;;;;;;22.97;69.09;101177.88;7284937;19;154427;-63
2022/09/05 02:55:49;;;;;;;;;;;;;;;22.97;69.20;101182.69;7282921;19;155906;-62
2022/09/05 02:58:36;;;;;;;;;;;;;;;22.97;68.67;101182.69;7284673;19;152059;-62
2022/09/05 03:01:42;;;;;;;;;;;;;;;22.95;68.43;101184.97;7284971;19;154862;-62
2022/09/05 03:04:26;;;;;;;;;;;;;;;22.95;68.68;101179.34;7282452;19;152758;-62
2022/09/05 03:06:59;;;;;;;;;;;;;;;22.94;69.22;101194.59;7282518;19;152444;-63
2022/09/05 03:09:50;;;;;;;;;;;;;;;22.94;68.97;101206.69;7285253;19;155103;-63
2022/09/05 03:12:43;;;;;;;;;;;;;;;22.95;69.19;101230.91;7286821;19;152816;-63
2022/09/05 03:15:15;;;;;;;;;;;;;;;22.96;70.09;101228.91;7281180;19;152796;-63
2022/09/05 03:17:52;;;;;;;;;;;;;;;22.92;69.94;101220.28;7282057;19;154588;-64
2022/09/05 03:20:37;;;;;;;;;;;;;;;22.85;70.51;101228.31;7283240;19;153408;-62
2022/09/05 03:23:22;;;;;;;;;;;;;;;22.99;70.16;101246.00;7284408;19;153150;-62
2022/09/05 03:26:08;;;;;;;;;;;;;;;22.99;69.87;101248.00;7282959;19;153143;-62
2022/09/05 03:29:02;;;;;;;;;;;;;;;22.91;70.32;101243.97;7285615;19;152372;-63
2022/09/05 03:31:44;;;;;;;;;;;;;;;22.86;70.42;101262.97;7282129;19;154024;-63
2022/09/05 03:34:37;;;;;;;;;;;;;;;22.97;69.52;101255.94;7281552;19;153935;-62
2022/09/05 03:37:13;;;;;;;;;;;;;;;22.82;70.27;101262.78;7287731;19;152952;-63
2022/09/05 03:39:44;;;;;;;;;;;;;;;22.98;69.52;101254.81;7282513;19;153265;-62
2022/09/05 03:42:23;;;;;;;;;;;;;;;22.79;70.45;101263.41;7284044;19;153399;-63
2022/09/05 03:45:13;;;;;;;;;;;;;;;23.02;69.35;101259.50;7281598;19;154836;-63
2022/09/05 03:48:04;;;;;;;;;;;;;;;22.86;69.76;101248.88;7282888;19;157832;-63
2022/09/05 03:50:57;;;;;;;;;;;;;;;22.92;69.16;101265.34;7279992;19;152258;-63
2022/09/05 03:54:02;;;;;;;;;;;;;;;22.91;69.20;101269.31;7284345;19;155525;-63
2022/09/05 03:57:04;;;;;;;;;;;;;;;22.95;69.49;101267.53;7282428;19;155968;-63
2022/09/05 04:00:09;;;;;;;;;;;;;;;22.88;70.23;101269.13;7281664;19;153311;-63
2022/09/05 04:02:43;;;;;;;;;;;;;;;22.87;69.84;101270.28;7288679;19;154635;-63
2022/09/05 04:05:31;;;;;;;;;;;;;;;22.88;70.51;101269.97;7279218;19;152730;-63
2022/09/05 04:08:23;;;;;;;;;;;;;;;22.85;70.39;101270.56;7282428;19;152249;-63
2022/09/05 04:11:11;;;;;;;;;;;;;;;22.84;70.10;101262.47;7281127;19;152718;-63
2022/09/05 04:13:44;;;;;;;;;;;;;;;22.78;70.53;101261.72;7283138;19;152654;-63
2022/09/05 04:16:28;;;;;;;;;;;;;;;22.85;70.23;101261.31;7282894;19;153187;-63
2022/09/05 04:19:06;;;;;;;;;;;;;;;22.74;70.40;101271.13;7281295;19;153146;-63
2022/09/05 04:21:43;;;;;;;;;;;;;;;22.72;70.44;101270.59;7280801;19;151713;-63
2022/09/05 04:24:18;;;;;;;;;;;;;;;22.71;70.82;101271.78;7283271;19;152682;-63
2022/09/05 04:27:01;;;;;;;;;;;;;;;22.72;71.24;101279.06;7288573;19;152837;-63
2022/09/05 04:29:38;;;;;;;;;;;;;;;22.56;71.17;101276.56;7281709;19;152786;-62
2022/09/05 04:32:07;;;;;;;;;;;;;;;22.66;71.08;101275.50;7280270;19;153749;-62
2022/09/05 04:35:11;;;;;;;;;;;;;;;22.60;70.98;101280.41;7282693;19;153803;-63
2022/09/05 04:37:43;;;;;;;;;;;;;;;22.59;70.75;101284.38;7277542;19;152288;-63
2022/09/05 04:40:29;;;;;;;;;;;;;;;22.56;71.50;101298.25;7281258;19;153641;-62
2022/09/05 04:43:06;;;;;;;;;;;;;;;22.56;71.20;101293.47;7282503;19;152186;-63
2022/09/05 04:45:39;;;;;;;;;;;;;;;22.58;71.41;101302.41;7280437;19;153852;-61
2022/09/05 04:48:09;;;;;;;;;;;;;;;22.57;71.65;101297.94;7279299;19;154065;-61
2022/09/05 04:51:01;;;;;;;;;;;;;;;22.59;71.25;101301.28;7286152;19;153764;-61
2022/09/05 04:53:47;;;;;;;;;;;;;;;22.61;71.20;101295.34;7279004;19;153323;-61
2022/09/05 04:56:18;;;;;;;;;;;;;;;22.60;71.15;101300.13;7281488;19;151890;-62
2022/09/05 04:59:07;;;;;;;;;;;;;;;22.59;71.59;101295.63;7281760;19;153197;-62
2022/09/05 05:01:59;;;;;;;;;;;;;;;22.63;70.66;101295.84;7280704;19;156567;-62
2022/09/05 05:04:47;;;;;;;;;;;;;;;22.66;70.51;101300.03;7279680;19;151959;-62
2022/09/05 05:07:47;;;;;;;;;;;;;;;22.65;70.21;101301.16;7280192;19;155610;-62
2022/09/05 05:10:31;;;;;;;;;;;;;;;22.66;70.37;101288.75;7283352;19;153569;-62
2022/09/05 05:13:28;;;;;;;;;;;;;;;22.68;70.35;101294.88;7294626;19;153325;-62
2022/09/05 05:16:18;;;;;;;;;;;;;;;22.66;70.34;101306.50;7284980;19;156048;-61
2022/09/05 05:19:13;;;;;;;;;;;;;;;22.70;70.15;101307.56;7287776;19;153986;-61
2022/09/05 05:21:58;;;;;;;;;;;;;;;22.70;69.79;101320.81;7286665;19;154042;-62
2022/09/05 05:24:30;;;;;;;;;;;;;;;22.70;69.87;101312.34;7287982;19;153358;-62
2022/09/05 05:26:57;;;;;;;;;;;;;;;22.71;70.85;101323.31;7288094;19;152923;-61
2022/09/05 05:29:24;;;;;;;;;;;;;;;22.74;70.54;101319.03;7286315;19;153729;-61
2022/09/05 05:32:01;;;;;;;;;;;;;;;22.72;69.98;101312.84;7285397;19;153007;-61
2022/09/05 05:34:33;;;;;;;;;;;;;;;22.74;70.69;101319.03;7285027;19;152294;-61
2022/09/05 05:37:25;;;;;;;;;;;;;;;22.74;70.29;101321.84;7290749;19;152631;-61
2022/09/05 05:40:01;;;;;;;;;;;;;;;22.73;69.83;101320.16;7283737;19;153453;-62
2022/09/05 05:42:28;;;;;;;;;;;;;;;22.75;70.32;101320.69;7287096;19;152363;-62
2022/09/05 05:44:56;;;;;;;;;;;;;;;22.75;70.06;101327.19;7283120;19;153961;-62
2022/09/05 05:47:26;;;;;;;;;;;;;;;22.75;69.47;101327.19;7287009;19;152398;-61
2022/09/05 05:50:01;;;;;;;;;;;;;;;22.76;69.86;101336.47;7285585;19;152333;-61
2022/09/05 05:52:54;;;;;;;;;;;;;;;22.76;70.11;101328.00;7282596;19;154050;-61
2022/09/05 05:55:36;;;;;;;;;;;;;;;22.73;69.75;101329.47;7286279;19;152218;-61
2022/09/05 05:58:36;;;;;;;;;;;;;;;22.74;69.59;101335.94;7286876;19;152718;-61
2022/09/05 06:01:25;;;;;;;;;;;;;;;22.74;69.63;101344.38;7292263;19;154020;-61
2022/09/05 06:04:22;;;;;;;;;;;;;;;22.75;70.05;101341.25;7283652;19;152826;-61
2022/09/05 06:06:58;;;;;;;;;;;;;;;22.75;69.84;101351.69;7282879;19;153457;-61
2022/09/05 06:09:43;;;;;;;;;;;;;;;22.73;70.51;101356.78;7286197;19;152821;-61
2022/09/05 06:12:30;;;;;;;;;;;;;;;22.74;70.76;101372.56;7285252;19;154323;-62
2022/09/05 06:15:35;;;;;;;;;;;;;;;22.75;70.49;101377.03;7283104;19;156663;-61
2022/09/05 06:18:16;;;;;;;;;;;;;;;22.79;71.30;101383.72;7286032;19;152864;-61
2022/09/05 06:20:55;;;;;;;;;;;;;;;22.80;70.49;101376.94;7283647;19;152580;-62
2022/09/05 06:23:42;;;;;;;;;;;;;;;22.79;70.24;101364.00;7283416;19;156036;-63
2022/09/05 06:26:27;;;;;;;;;;;;;;;22.73;70.23;101374.53;7292634;19;152224;-63
2022/09/05 06:29:09;;;;;;;;;;;;;;;22.63;70.72;101384.00;7284802;19;152759;-63
2022/09/05 06:31:51;;;;;;;;;;;;;;;22.67;70.30;101377.75;7286105;19;151993;-63
2022/09/05 06:34:37;;;;;;;;;;;;;;;22.61;70.39;101382.66;7284893;19;152315;-62
2022/09/05 06:37:12;;;;;;;;;;;;;;;22.74;70.03;101386.63;7283390;19;153937;-62
2022/09/05 06:39:57;;;;;;;;;;;;;;;22.70;69.64;101389.25;7285502;19;152127;-62
2022/09/05 06:42:30;;;;;;;;;;;;;;;22.71;69.03;101381.63;7285569;19;152850;-63
2022/09/05 06:45:21;;;;;;;;;;;;;;;22.66;69.64;101391.00;7283523;19;153594;-62
2022/09/05 06:48:06;;;;;;;;;;;;;;;22.66;69.41;101407.91;7285963;19;153501;-62
2022/09/05 06:50:54;;;;;;;;;;;;;;;22.66;69.44;101407.06;7290519;19;152547;-62
2022/09/05 06:53:44;;;;;;;;;;;;;;;22.63;69.62;101406.53;7281137;19;151645;-63
2022/09/05 06:56:14;;;;;;;;;;;;;;;22.60;70.26;101401.53;7284660;19;152554;-63
2022/09/05 06:59:10;;;;;;;;;;;;;;;22.44;70.47;101407.78;7282753;19;154231;-63
2022/09/05 07:01:54;;;;;;;;;;;;;;;22.44;70.44;101408.56;7285098;19;152009;-62
2022/09/05 07:04:30;;;;;;;;;;;;;;;22.46;70.34;101417.56;7283925;19;152062;-60
2022/09/05 07:07:16;;;;;;;;;;;;;;;22.36;71.07;101417.75;7282495;19;156932;-59
2022/09/05 07:09:49;;;;;;;;;;;;;;;22.32;71.03;101416.69;7281983;19;152351;-59
2022/09/05 07:12:29;;;;;;;;;;;;;;;22.26;71.18;101423.56;7284296;19;151860;-59
2022/09/05 07:15:01;;;;;;;;;;;;;;;22.25;71.39;101426.69;7289973;19;152993;-59
2022/09/05 07:17:46;;;;;;;;;;;;;;;22.22;71.57;101438.56;7282530;19;153430;-59
2022/09/05 07:20:50;;;;;;;;;;;;;;;22.23;71.81;101423.34;7280787;19;154099;-59
2022/09/05 07:23:51;;;;;;;;;;;;;;;22.24;71.94;101431.50;7285848;19;151798;-59
2022/09/05 07:26:35;;;;;;;;;;;;;;;22.21;71.96;101429.28;7284770;19;152933;-59
2022/09/05 07:29:21;;;;;;;;;;;;;;;22.18;72.41;101433.53;7282881;19;154197;-59
2022/09/05 07:31:52;;;;;;;;;;;;;;;22.11;73.27;101429.47;7279373;19;152256;-58
2022/09/05 07:34:22;;;;;;;;;;;;;;;22.11;72.83;101427.50;7277808;19;153286;-59
2022/09/05 07:36:54;;;;;;;;;;;;;;;22.26;72.77;101434.81;7288788;19;154543;-59
2022/09/05 07:39:44;;;;;;;;;;;;;;;22.25;72.82;101443.59;7280031;19;154026;-59
2022/09/05 07:42:14;;;;;;;;;;;;;;;22.24;72.29;101444.72;7282588;19;155597;-59
2022/09/05 07:44:46;;;;;;;;;;;;;;;22.28;71.76;101440.16;7283508;19;152598;-59
2022/09/05 07:47:30;;;;;;;;;;;;;;;22.27;71.50;101442.13;7285163;19;153243;-59
2022/09/05 07:50:20;;;;;;;;;;;;;;;22.16;72.47;101443.47;7281890;19;153308;-59
2022/09/05 07:53:22;;;;;;;;;;;;;;;22.21;72.23;101443.38;7281419;19;153052;-59
2022/09/05 07:56:13;;;;;;;;;;;;;;;22.22;72.33;101445.03;7282492;19;154464;-59
2022/09/05 07:59:07;;;;;;;;;;;;;;;22.22;72.36;101435.72;7281217;19;156762;-59
2022/09/05 08:01:36;;;;;;;;;;;;;;;22.30;72.39;101441.53;7290653;19;153049;-59
2022/09/05 08:04:05;;;;;;;;;;;;;;;22.31;71.70;101440.34;7281703;19;154104;-59
2022/09/05 08:06:32;;;;;;;;;;;;;;;22.24;72.08;101445.56;7279811;19;152121;-59
2022/09/05 08:09:33;;;;;;;;;;;;;;;22.28;72.62;101443.78;7282965;19;154816;-59
2022/09/05 08:12:27;;;;;;;;;;;;;;;22.27;72.91;101446.91;7280002;19;158420;-59
2022/09/05 08:14:54;;;;;;;;;;;;;;;22.23;72.90;101452.31;7282230;19;152264;-59
2022/09/05 08:17:22;;;;;;;;;;;;;;;22.18;72.88;101449.59;7282880;19;152615;-59
2022/09/05 08:20:06;;;;;;;;;;;;;;;22.21;73.14;101449.00;7280135;19;155546;-58
2022/09/05 08:22:42;;;;;;;;;;;;;;;22.26;72.65;101445.25;7281726;19;152191;-59
2022/09/05 08:25:31;;;;;;;;;;;;;;;22.29;72.47;101441.81;7287034;19;153074;-59
2022/09/05 08:28:24;;;;;;;;;;;;;;;22.25;72.24;101446.41;7283051;19;152661;-59
2022/09/05 08:31:08;;;;;;;;;;;;;;;22.32;72.03;101447.66;7281270;19;153442;-59
2022/09/05 08:33:36;;;;;;;;;;;;;;;22.34;71.52;101442.56;7279089;19;153105;-59
2022/09/05 08:36:17;;;;;;;;;;;;;;;22.37;71.03;101447.56;7280385;19;152364;-59
2022/09/05 08:38:44;;;;;;;;;;;;;;;22.36;71.64;101459.97;7283048;19;152703;-59
2022/09/05 08:41:27;;;;;;;;;;;;;;;22.38;71.11;101477.41;7280268;19;153361;-59
2022/09/05 08:44:13;;;;;;;;;;;;;;;22.31;71.65;101471.31;7282783;19;152396;-59
2022/09/05 08:47:19;;;;;;;;;;;;;;;22.35;71.81;101480.81;7288449;19;156416;-59
2022/09/05 08:50:04;;;;;;;;;;;;;;;22.31;72.42;101474.13;7295102;19;153476;-59
2022/09/05 08:52:51;;;;;;;;;;;;;;;22.30;73.06;101486.56;7287161;19;153430;-59
2022/09/05 08:55:23;;;;;;;;;;;;;;;22.29;73.32;101475.59;7286672;19;153074;-59
2022/09/05 08:57:59;;;;;;;;;;;;;;;22.24;73.74;101481.31;7290576;19;152082;-59
2022/09/05 09:00:28;;;;;;;;;;;;;;;22.18;74.06;101469.28;7288417;19;153786;-59
2022/09/05 09:02:57;;;;;;;;;;;;;;;22.30;73.47;101477.28;7288147;19;154799;-59
2022/09/05 09:05:38;;;;;;;;;;;;;;;22.32;73.05;101484.25;7283965;19;152826;-59
2022/09/05 09:08:41;;;;;;;;;;;;;;;22.27;74.02;101481.53;7288798;19;153777;-59
2022/09/05 09:11:22;;;;;;;;;;;;;;;22.24;73.52;101481.31;7286691;19;154069;-59
2022/09/05 09:13:51;;;;;;;;;;;;;;;22.27;73.46;101486.31;7292708;19;152057;-59
2022/09/05 09:16:30;;;;;;;;;;;;;;;22.23;73.93;101488.91;7285770;19;154290;-59
2022/09/05 09:19:08;;;;;;;;;;;;;;;22.26;73.89;101490.31;7287903;19;153137;-59
2022/09/05 09:21:50;;;;;;;;;;;;;;;22.31;74.01;101485.41;7286009;19;152027;-59
2022/09/05 09:24:28;;;;;;;;;;;;;;;22.26;74.29;101476.22;7287212;19;153993;-59
2022/09/05 09:27:05;;;;;;;;;;;;;;;22.27;74.47;101473.09;7287799;19;152890;-59
2022/09/05 09:29:40;;;;;;;;;;;;;;;22.28;74.17;101480.41;7287887;19;153543;-59
2022/09/05 09:32:23;;;;;;;;;;;;;;;22.32;74.50;101480.59;7287598;19;152679;-59
2022/09/05 09:34:50;;;;;;;;;;;;;;;22.35;74.09;101483.63;7294506;19;152020;-59
2022/09/05 09:37:30;;;;;;;;;;;;;;;22.39;74.12;101481.06;7285219;19;154228;-59
2022/09/05 09:40:22;;;;;;;;;;;;;;;22.48;73.85;101488.50;7284845;19;152374;-59
2022/09/05 09:42:54;;;;;;;;;;;;;;;22.45;74.48;101497.53;7287736;19;153199;-59
2022/09/05 09:45:24;;;;;;;;;;;;;;;22.48;73.75;101490.47;7284866;19;153773;-59
2022/09/05 09:48:03;;;;;;;;;;;;;;;22.46;73.32;101496.41;7287041;19;152734;-59
2022/09/05 09:50:30;;;;;;;;;;;;;;;22.42;73.48;101497.34;7284136;19;152589;-59
2022/09/05 09:53:24;;;;;;;;;;;;;;;22.38;73.69;101499.94;7284548;19;153919;-59
2022/09/05 09:55:50;;;;;;;;;;;;;;;22.36;73.03;101490.94;7281723;19;152130;-59
2022/09/05 09:58:23;;;;;;;;;;;;;;;22.35;72.59;101496.91;7294308;19;153118;-59
2022/09/05 10:01:05;;;;;;;;;;;;;;;22.40;72.35;101492.00;7285680;19;152765;-59
2022/09/05 10:04:27;;;;;;;;;;;;;;;22.43;72.20;101487.75;7286858;19;156142;-59
2022/09/05 10:07:30;;;;;;;;;;;;;;;22.46;72.31;101502.03;7278493;19;155476;-59
2022/09/05 10:10:29;;;;;;;;;;;;;;;22.41;72.01;101496.50;7284310;19;152949;-59
2022/09/05 10:13:24;;;;;;;;;;;;;;;22.36;72.83;101501.38;7285702;19;152176;-59
2022/09/05 10:16:04;;;;;;;;;;;;;;;22.42;72.53;101498.16;7284370;19;155890;-59
2022/09/05 10:18:41;;;;;;;;;;;;;;;22.40;72.46;101494.81;7286015;19;152320;-59
2022/09/05 10:21:14;;;;;;;;;;;;;;;22.48;71.54;101482.88;7284151;19;153006;-59
2022/09/05 10:23:53;;;;;;;;;;;;;;;22.48;72.41;101480.06;7294001;19;153763;-59
2022/09/05 10:26:30;;;;;;;;;;;;;;;22.50;72.33;101486.19;7285632;19;153613;-59
2022/09/05 10:28:57;;;;;;;;;;;;;;;22.57;71.68;101474.53;7285638;19;153515;-59
2022/09/05 10:31:45;;;;;;;;;;;;;;;22.58;71.41;101468.59;7285291;19;152317;-59
2022/09/05 10:35:02;;;;;;;;;;;;;;;22.63;71.02;101467.66;7283101;19;154558;-59
2022/09/05 10:37:53;;;;;;;;;;;;;;;22.73;69.84;101470.31;7283825;19;153436;-59
2022/09/05 10:40:22;;;;;;;;;;;;;;;22.72;70.16;101459.34;7284905;19;152309;-59
2022/09/05 10:42:51;;;;;;;;;;;;;;;22.66;69.99;101458.59;7286635;19;152212;-59
2022/09/05 10:45:29;;;;;;;;;;;;;;;22.65;69.43;101465.38;7282764;19;152311;-59
2022/09/05 10:48:16;;;;;;;;;;;;;;;22.69;69.30;101468.41;7293348;19;152449;-59
2022/09/05 10:51:08;;;;;;;;;;;;;;;22.68;69.57;101464.75;7282577;19;154153;-59
2022/09/05 10:53:51;;;;;;;;;;;;;;;22.62;69.91;101461.19;7282255;19;152837;-59
2022/09/05 10:56:29;;;;;;;;;;;;;;;22.63;69.70;101456.38;7286002;19;153592;-59
2022/09/05 10:59:00;;;;;;;;;;;;;;;22.65;69.28;101461.72;7284320;19;154144;-59
2022/09/05 11:01:54;;;;;;;;;;;;;;;22.63;69.52;101464.84;7283867;19;152076;-59
2022/09/05 11:04:47;;;;;;;;;;;;;;;22.69;68.73;101451.50;7283601;19;155832;-59
2022/09/05 11:07:28;;;;;;;;;;;;;;;22.69;68.96;101446.69;7282441;19;154749;-59
2022/09/05 11:10:15;;;;;;;;;;;;;;;22.69;68.90;101441.06;7285753;19;154175;-59
2022/09/05 11:12:44;;;;;;;;;;;;;;;22.70;68.53;101439.97;7292266;19;153187;-59
2022/09/05 11:15:26;;;;;;;;;;;;;;;22.70;67.81;101444.75;7280491;19;152974;-59
2022/09/05 11:17:56;;;;;;;;;;;;;;;22.71;68.14;101452.06;7285962;19;152585;-59
2022/09/05 11:20:31;;;;;;;;;;;;;;;22.69;67.70;101446.69;7281444;19;153966;-59
2022/09/05 11:23:07;;;;;;;;;;;;;;;22.71;67.71;101452.91;7284783;19;152913;-59
2022/09/05 11:25:35;;;;;;;;;;;;;;;22.74;67.75;101446.63;7282204;19;153844;-59
2022/09/05 11:28:15;;;;;;;;;;;;;;;22.75;68.11;101445.50;7284174;19;154517;-59
2022/09/05 11:30:48;;;;;;;;;;;;;;;22.75;67.90;101447.47;7282810;19;152710;-59
2022/09/05 11:33:33;;;;;;;;;;;;;;;22.77;68.52;101447.97;7284727;19;152267;-59
2022/09/05 11:36:30;;;;;;;;;;;;;;;22.77;68.56;101448.81;7284703;19;156546;-59
2022/09/05 11:39:45;;;;;;;;;;;;;;;22.79;68.60;101440.91;7270813;19;158562;-59
2022/09/05 11:42:45;;;;;;;;;;;;;;;22.78;69.04;101447.69;7280449;19;154270;-59
2022/09/05 11:45:26;;;;;;;;;;;;;;;22.78;68.60;101446.84;7281515;19;152651;-59
2022/09/05 11:47:55;;;;;;;;;;;;;;;22.80;68.56;101458.66;7282053;19;154001;-59
2022/09/05 11:50:42;;;;;;;;;;;;;;;22.80;68.36;101461.47;7278915;19;153075;-59
2022/09/05 11:53:32;;;;;;;;;;;;;;;22.77;67.72;101467.72;7280951;19;152279;-59
2022/09/05 11:56:03;;;;;;;;;;;;;;;22.81;67.53;101465.94;7282015;19;152091;-60
2022/09/05 11:58:29;;;;;;;;;;;;;;;;;;7288705;19;153343;-59
2022/09/05 12:01:23;;;;;;;;;;;;;;;22.89;66.17;101471.72;7278017;19;180829;-59
2022/09/05 12:04:09;;;;;;;;;;;;;;;22.86;65.36;101465.84;7278216;19;152370;-59
2022/09/05 12:06:49;;;;;;;;;;;;;;;22.87;65.35;101464.69;7280291;19;152510;-59
2022/09/05 12:09:36;;;;;;;;;;;;;;;22.90;65.63;101466.88;7282232;19;153342;-59
2022/09/05 12:12:07;;;;;;;;;;;;;;;22.84;65.16;101459.69;7279237;19;154673;-59
2022/09/05 12:15:22;;;;;;;;;;;;;;;22.84;65.07;101456.88;7278124;19;152007;-59
2022/09/05 12:17:49;;;;;;;;;;;;;;;22.79;65.04;101455.00;7282405;19;154384;-59
2022/09/05 12:20:29;;;;;;;;;;;;;;;22.79;65.37;101446.53;7277275;19;154561;-59
2022/09/05 12:23:27;;;;;;;;;;;;;;;22.79;65.64;101449.34;7287514;19;152651;-58
2022/09/05 12:26:43;;;;;;;;;;;;;;;22.81;65.42;101452.69;7278593;19;157183;-59
2022/09/05 12:29:34;;;;;;;;;;;;;;;22.80;66.04;101444.56;7279574;19;153219;-59
2022/09/05 12:32:19;;;;;;;;;;;;;;;22.78;66.74;101444.03;7280929;19;155015;-59
2022/09/05 12:35:06;;;;;;;;;;;;;;;22.76;66.68;101451.97;7276556;19;155521;-59
2022/09/05 12:38:02;;;;;;;;;;;;;;;22.79;67.54;101454.16;7271666;19;153678;-59
2022/09/05 12:41:04;;;;;;;;;;;;;;;22.81;67.09;101451.84;7274156;19;155150;-59
2022/09/05 12:43:54;;;;;;;;;;;;;;;22.78;67.75;101453.31;7279832;19;156074;-59
2022/09/05 12:46:44;;;;;;;;;;;;;;;22.81;67.65;101460.28;7279863;19;152358;-59
2022/09/05 12:49:21;;;;;;;;;;;;;;;22.84;67.86;101451.25;7286310;19;152916;-59
2022/09/05 12:52:02;;;;;;;;;;;;;;;22.82;67.57;101447.88;7278506;19;152906;-59
2022/09/05 12:54:47;;;;;;;;;;;;;;;22.85;67.46;101462.19;7278806;19;153672;-59
2022/09/05 12:57:26;;;;;;;;;;;;;;;22.89;66.89;101456.78;7278831;19;154369;-59
2022/09/05 13:00:15;;;;;;;;;;;;;;;22.84;66.75;101445.59;7276593;19;152452;-59
2022/09/05 13:03:03;;;;;;;;;;;;;;;22.83;66.67;101443.94;7281343;19;155830;-59
2022/09/05 13:06:10;;;;;;;;;;;;;;;22.83;66.75;101436.31;7273737;19;156121;-59
2022/09/05 13:08:58;;;;;;;;;;;;;;;22.86;66.17;101440.47;7281310;19;151668;-59
2022/09/05 13:11:29;;;;;;;;;;;;;;;22.83;66.68;101441.13;7278053;19;154039;-59
2022/09/05 13:14:30;;;;;;;;;;;;;;;22.80;66.00;101433.28;7285751;19;157204;-59
2022/09/05 13:17:26;;;;;;;;;;;;;;;22.84;65.86;101434.34;7281709;19;152654;-59
2022/09/05 13:19:54;;;;;;;;;;;;;;;22.79;66.03;101434.44;7279009;19;154277;-59
2022/09/05 13:22:25;;;;;;;;;;;;;;;22.79;66.04;101429.63;7278605;19;152609;-59
2022/09/05 13:24:58;;;;;;;;;;;;;;;22.80;65.89;101430.47;7239484;19;159106;-59
2022/09/05 13:27:28;;;;;;;;;;;;;;;22.81;66.09;101423.66;7277657;19;153377;-59
2022/09/05 13:29:59;;;;;;;;;;;;;;;22.82;66.08;101419.72;7278067;19;152513;-59
2022/09/05 13:32:50;;;;;;;;;;;;;;;22.84;66.08;101421.09;7286774;19;155759;-59
2022/09/05 13:35:47;;;;;;;;;;;;;;;22.90;65.88;101422.63;7280334;19;153044;-59
2022/09/05 13:39:05;;;;;;;;;;;;;;;22.87;65.75;101408.34;7291958;19;152301;-59
2022/09/05 13:41:47;;;;;;;;;;;;;;;22.88;66.00;101410.03;7277787;19;153714;-59
2022/09/05 13:44:17;;;;;;;;;;;;;;;22.88;66.19;101410.03;7283928;19;152517;-59
2022/09/05 13:46:59;;;;;;;;;;;;;;;22.91;66.08;101409.38;7285341;19;154595;-59
2022/09/05 13:49:46;;;;;;;;;;;;;;;22.89;66.45;101422.97;7283636;19;154056;-59